createdAt,value
2023-04-07T00:01:04.445Z,98695.00
2023-04-07T00:03:52.192Z,98692.00
2023-04-07T00:06:40.772Z,98687.00
2023-04-07T00:09:28.255Z,98682.00
2023-04-07T00:12:16.278Z,98684.00
2023-04-07T00:15:03.938Z,98687.00
2023-04-07T00:17:51.400Z,98696.00
2023-04-07T00:20:39.242Z,98691.00
2023-04-07T00:23:27.243Z,98691.00
2023-04-07T00:26:15.068Z,98684.00
2023-04-07T00:29:02.698Z,98686.00
2023-04-07T00:31:50.347Z,98683.00
2023-04-07T00:34:37.845Z,98681.00
2023-04-07T00:37:28.335Z,98683.00
2023-04-07T00:40:15.907Z,98685.00
2023-04-07T00:43:03.451Z,98683.00
2023-04-07T00:45:50.900Z,98681.00
2023-04-07T00:48:38.541Z,98680.00
2023-04-07T00:51:27.156Z,98672.00
2023-04-07T00:54:15.573Z,98671.00
2023-04-07T00:57:03.088Z,98671.00
2023-04-07T00:59:52.450Z,98667.00
2023-04-07T01:02:59.100Z,98658.00
2023-04-07T01:05:52.980Z,98668.00
2023-04-07T01:08:57.466Z,98656.00
2023-04-07T01:12:10.552Z,98659.00
2023-04-07T01:15:08.017Z,98658.00
2023-04-07T01:18:08.863Z,98655.00
2023-04-07T01:21:06.522Z,98652.00
2023-04-07T01:24:18.524Z,98647.00
2023-04-07T01:27:28.607Z,98655.00
2023-04-07T01:30:18.049Z,98648.00
2023-04-07T01:33:08.476Z,98653.00
2023-04-07T01:36:01.567Z,98651.00
2023-04-07T01:38:51.439Z,98647.00
2023-04-07T01:41:40.485Z,98649.00
2023-04-07T01:44:29.137Z,98646.00
2023-04-07T01:47:17.988Z,98638.00
2023-04-07T01:50:09.357Z,98642.00
2023-04-07T01:52:57.751Z,98639.00
2023-04-07T01:55:45.980Z,98638.00
2023-04-07T01:58:33.430Z,98638.00
2023-04-07T02:01:21.612Z,98636.00
2023-04-07T02:04:32.461Z,98641.00
2023-04-07T02:07:53.254Z,98633.00
2023-04-07T02:10:41.826Z,98632.00
2023-04-07T02:13:30.884Z,98631.00
2023-04-07T02:16:20.498Z,98631.00
2023-04-07T02:19:09.091Z,98629.00
2023-04-07T02:21:57.256Z,98626.00
2023-04-07T02:24:44.909Z,98630.00
2023-04-07T02:27:32.378Z,98630.00
2023-04-07T02:30:21.213Z,98630.00
2023-04-07T02:33:08.969Z,98626.00
2023-04-07T02:35:56.881Z,98623.00
2023-04-07T02:38:44.515Z,98620.00
2023-04-07T02:41:31.970Z,98616.00
2023-04-07T02:44:19.367Z,98614.00
2023-04-07T02:47:06.818Z,98610.00
2023-04-07T02:49:54.238Z,98608.00
2023-04-07T02:52:41.772Z,98612.00
2023-04-07T02:55:29.231Z,98610.00
2023-04-07T02:58:16.733Z,98615.00
2023-04-07T03:01:05.103Z,98608.00
2023-04-07T03:03:52.972Z,98605.00
2023-04-07T03:06:40.766Z,98604.00
2023-04-07T03:09:28.311Z,98608.00
2023-04-07T03:12:15.791Z,98605.00
2023-04-07T03:15:03.489Z,98613.00
2023-04-07T03:17:51.113Z,98608.00
2023-04-07T03:20:38.674Z,98600.00
2023-04-07T03:23:28.784Z,98598.00
2023-04-07T03:26:16.379Z,98596.00
2023-04-07T03:29:04.439Z,98602.00
2023-04-07T03:31:52.127Z,98599.00
2023-04-07T03:34:39.719Z,98597.00
2023-04-07T03:37:27.341Z,98603.00
2023-04-07T03:40:15.493Z,98597.00
2023-04-07T03:43:03.652Z,98598.00
2023-04-07T03:45:53.745Z,98591.00
2023-04-07T03:48:41.825Z,98595.00
2023-04-07T03:51:29.263Z,98599.00
2023-04-07T03:54:16.791Z,98588.00
2023-04-07T03:57:04.665Z,98592.00
2023-04-07T03:59:52.380Z,98591.00
2023-04-07T04:02:40.225Z,98596.00
2023-04-07T04:05:27.886Z,98593.00
2023-04-07T04:08:15.666Z,98590.00
2023-04-07T04:11:03.344Z,98590.00
2023-04-07T04:13:50.988Z,98590.00
2023-04-07T04:16:38.940Z,98589.00
2023-04-07T04:19:26.529Z,98593.00
2023-04-07T04:22:14.380Z,98583.00
2023-04-07T04:25:02.394Z,98586.00
2023-04-07T04:27:49.869Z,98581.00
2023-04-07T04:30:37.706Z,98586.00
2023-04-07T04:33:25.735Z,98583.00
2023-04-07T04:36:13.500Z,98576.00
2023-04-07T04:39:01.740Z,98580.00
2023-04-07T04:41:49.408Z,98579.00
2023-04-07T04:44:36.848Z,98580.00
2023-04-07T04:47:24.577Z,98593.00
2023-04-07T04:50:12.348Z,98587.00
2023-04-07T04:52:59.802Z,98577.00
2023-04-07T04:55:52.356Z,98584.00
2023-04-07T04:58:42.537Z,98583.00
2023-04-07T05:01:33.226Z,98586.00
2023-04-07T05:04:21.232Z,98589.00
2023-04-07T05:07:09.316Z,98583.00
2023-04-07T05:09:57.092Z,98589.00
2023-04-07T05:12:44.612Z,98582.00
2023-04-07T05:15:32.091Z,98582.00
2023-04-07T05:18:19.755Z,98585.00
2023-04-07T05:21:07.533Z,98580.00
2023-04-07T05:23:55.135Z,98576.00
2023-04-07T05:26:42.613Z,98578.00
2023-04-07T05:29:30.064Z,98580.00
2023-04-07T05:32:19.731Z,98575.00
2023-04-07T05:35:07.855Z,98574.00
2023-04-07T05:37:55.493Z,98574.00
2023-04-07T05:40:43.020Z,98573.00
2023-04-07T05:43:30.735Z,98583.00
2023-04-07T05:46:18.691Z,98578.00
2023-04-07T05:49:18.970Z,98578.00
2023-04-07T05:52:07.890Z,98584.00
2023-04-07T05:54:56.602Z,98581.00
2023-04-07T05:57:44.597Z,98575.00
2023-04-07T06:00:32.022Z,98581.00
2023-04-07T06:03:19.980Z,98571.00
2023-04-07T06:06:07.897Z,98576.00
2023-04-07T06:08:55.641Z,98575.00
2023-04-07T06:11:47.246Z,98588.00
2023-04-07T06:14:35.818Z,98582.00
2023-04-07T06:17:24.254Z,98574.00
2023-04-07T06:20:12.764Z,98578.00
2023-04-07T06:23:00.325Z,98573.00
2023-04-07T06:25:51.999Z,98572.00
2023-04-07T06:28:40.182Z,98580.00
2023-04-07T06:31:28.711Z,98577.00
2023-04-07T06:34:16.718Z,98572.00
2023-04-07T06:37:05.632Z,98568.00
2023-04-07T06:39:53.189Z,98571.00
2023-04-07T06:42:40.724Z,98578.00
2023-04-07T06:45:28.091Z,98572.00
2023-04-07T06:48:16.330Z,98577.00
2023-04-07T06:51:04.206Z,98582.00
2023-04-07T06:53:52.018Z,98577.00
2023-04-07T06:56:43.340Z,98570.00
2023-04-07T06:59:30.884Z,98561.00
2023-04-07T07:02:18.596Z,98578.00
2023-04-07T07:05:06.996Z,98568.00
2023-04-07T07:07:54.848Z,98571.00
2023-04-07T07:10:42.295Z,98573.00
2023-04-07T07:13:29.897Z,98576.00
2023-04-07T07:16:17.625Z,98574.00
2023-04-07T07:19:05.565Z,98571.00
2023-04-07T07:21:53.085Z,98574.00
2023-04-07T07:24:40.899Z,98568.00
2023-04-07T07:27:28.377Z,98575.00
2023-04-07T07:30:16.237Z,98569.00
2023-04-07T07:33:03.927Z,98575.00
2023-04-07T07:35:51.830Z,98579.00
2023-04-07T07:38:40.853Z,98570.00
2023-04-07T07:41:28.415Z,98577.00
2023-04-07T07:44:16.886Z,98574.00
2023-04-07T07:47:04.409Z,98581.00
2023-04-07T07:49:52.273Z,98571.00
2023-04-07T07:52:39.717Z,98570.00
2023-04-07T07:55:27.236Z,98560.00
2023-04-07T07:58:14.737Z,98572.00
2023-04-07T08:01:02.354Z,98583.00
2023-04-07T08:03:50.243Z,98583.00
2023-04-07T08:06:38.453Z,98578.00
2023-04-07T08:09:26.434Z,98579.00
2023-04-07T08:12:13.854Z,98569.00
2023-04-07T08:15:01.531Z,98573.00
2023-04-07T08:17:49.166Z,98575.00
2023-04-07T08:20:36.909Z,98567.00
2023-04-07T08:23:24.410Z,98564.00
2023-04-07T08:26:11.888Z,98568.00
2023-04-07T08:28:59.458Z,98563.00
2023-04-07T08:31:47.139Z,98566.00
2023-04-07T08:34:34.821Z,98556.00
2023-04-07T08:37:22.331Z,98561.00
2023-04-07T08:40:10.841Z,98550.00
2023-04-07T08:43:01.490Z,98557.00
2023-04-07T08:45:53.544Z,98551.00
2023-04-07T08:48:44.997Z,98546.00
2023-04-07T08:51:33.694Z,98539.00
2023-04-07T08:54:22.694Z,98539.00
2023-04-07T08:57:11.589Z,98541.00
2023-04-07T09:00:07.404Z,98536.00
2023-04-07T09:02:56.122Z,98536.00
2023-04-07T09:05:48.695Z,98537.00
2023-04-07T09:08:36.221Z,98524.00
2023-04-07T09:11:23.874Z,98515.00
2023-04-07T09:14:11.398Z,98513.00
2023-04-07T09:17:00.324Z,98504.00
2023-04-07T09:19:48.982Z,98498.00
2023-04-07T09:22:48.238Z,98507.00
2023-04-07T09:25:35.752Z,98496.00
2023-04-07T09:28:23.184Z,98493.00
2023-04-07T09:31:10.799Z,98494.00
2023-04-07T09:34:00.002Z,98484.00
2023-04-07T09:36:47.696Z,98478.00
2023-04-07T09:39:50.959Z,98477.00
2023-04-07T09:42:48.501Z,98474.00
2023-04-07T09:45:37.535Z,98468.00
2023-04-07T09:48:25.380Z,98474.00
2023-04-07T09:51:17.932Z,98472.00
2023-04-07T09:54:05.427Z,98474.00
2023-04-07T09:56:53.254Z,98466.00
2023-04-07T09:59:45.542Z,98462.00
2023-04-07T10:02:33.779Z,98454.00
2023-04-07T10:05:22.179Z,98457.00
2023-04-07T10:08:10.653Z,98456.00
2023-04-07T10:11:01.934Z,98455.00
2023-04-07T10:13:52.681Z,98458.00
2023-04-07T10:16:42.612Z,98449.00
2023-04-07T10:19:33.958Z,98449.00
2023-04-07T10:22:21.946Z,98457.00
2023-04-07T10:25:13.401Z,98440.00
2023-04-07T10:28:08.266Z,98437.00
2023-04-07T10:30:56.521Z,98442.00
2023-04-07T10:33:51.463Z,98445.00
2023-04-07T10:37:17.834Z,98443.00
2023-04-07T10:40:21.643Z,98431.00
2023-04-07T10:43:11.551Z,98437.00
2023-04-07T10:46:00.028Z,98427.00
2023-04-07T10:49:09.925Z,98432.00
2023-04-07T10:52:12.716Z,98431.00
2023-04-07T10:55:40.369Z,98424.00
2023-04-07T10:58:34.815Z,98428.00
2023-04-07T11:01:24.523Z,98424.00
2023-04-07T11:04:12.020Z,98414.00
2023-04-07T11:06:59.764Z,98414.00
2023-04-07T11:09:47.804Z,98414.00
2023-04-07T11:12:35.589Z,98411.00
2023-04-07T11:15:23.718Z,98407.00
2023-04-07T11:18:19.589Z,98411.00
2023-04-07T11:21:08.377Z,98396.00
2023-04-07T11:23:56.105Z,98398.00
2023-04-07T11:26:43.775Z,98392.00
2023-04-07T11:29:35.259Z,98391.00
2023-04-07T11:32:27.998Z,98385.00
2023-04-07T11:35:16.368Z,98388.00
2023-04-07T11:38:04.434Z,98383.00
2023-04-07T11:40:52.107Z,98379.00
2023-04-07T11:43:42.159Z,98372.00
2023-04-07T11:46:30.227Z,98373.00
2023-04-07T11:49:17.831Z,98371.00
2023-04-07T11:52:07.512Z,98363.00
2023-04-07T11:54:55.554Z,98369.00
2023-04-07T11:57:43.218Z,98367.00
2023-04-07T12:00:30.971Z,98352.00
2023-04-07T12:03:18.906Z,98351.00
2023-04-07T12:06:07.840Z,98355.00
2023-04-07T12:08:55.521Z,98346.00
2023-04-07T12:11:53.379Z,98347.00
2023-04-07T12:14:41.570Z,98350.00
2023-04-07T12:17:29.042Z,98338.00
2023-04-07T12:20:17.051Z,98338.00
2023-04-07T12:23:04.463Z,98345.00
2023-04-07T12:25:55.022Z,98334.00
2023-04-07T12:28:42.772Z,98332.00
2023-04-07T12:31:31.096Z,98332.00
2023-04-07T12:34:19.104Z,98341.00
2023-04-07T12:37:06.575Z,98331.00
2023-04-07T12:39:54.275Z,98328.00
2023-04-07T12:42:41.834Z,98336.00
2023-04-07T12:45:31.207Z,98330.00
2023-04-07T12:48:18.894Z,98335.00
2023-04-07T12:51:06.551Z,98330.00
2023-04-07T12:53:54.406Z,98328.00
2023-04-07T12:56:42.556Z,98323.00
2023-04-07T12:59:30.563Z,98318.00
2023-04-07T13:02:19.436Z,98319.00
2023-04-07T13:05:08.208Z,98318.00
2023-04-07T13:07:56.167Z,98321.00
2023-04-07T13:10:43.608Z,98323.00
2023-04-07T13:13:32.012Z,98314.00
2023-04-07T13:16:19.689Z,98321.00
2023-04-07T13:19:09.418Z,98321.00
2023-04-07T13:21:57.257Z,98311.00
2023-04-07T13:24:44.794Z,98306.00
2023-04-07T13:27:32.366Z,98307.00
2023-04-07T13:30:22.595Z,98296.00
2023-04-07T13:33:10.470Z,98300.00
2023-04-07T13:35:57.999Z,98299.00
2023-04-07T13:38:45.606Z,98289.00
2023-04-07T13:41:33.636Z,98298.00
2023-04-07T13:44:21.234Z,98289.00
2023-04-07T13:47:08.917Z,98293.00
2023-04-07T13:49:56.834Z,98287.00
2023-04-07T13:52:44.465Z,98288.00
2023-04-07T13:55:37.692Z,98274.00
2023-04-07T13:58:25.704Z,98279.00
2023-04-07T14:01:13.568Z,98272.00
2023-04-07T14:04:03.178Z,98274.00
2023-04-07T14:06:50.780Z,98272.00
2023-04-07T14:09:38.797Z,98271.00
2023-04-07T14:12:26.559Z,98268.00
2023-04-07T14:15:14.860Z,98261.00
2023-04-07T14:18:03.215Z,98262.00
2023-04-07T14:20:50.854Z,98257.00
2023-04-07T14:23:38.390Z,98266.00
2023-04-07T14:26:27.159Z,98253.00
2023-04-07T14:29:15.169Z,98259.00
2023-04-07T14:32:02.852Z,98263.00
2023-04-07T14:34:50.592Z,98258.00
2023-04-07T14:37:38.653Z,98258.00
2023-04-07T14:40:26.105Z,98255.00
2023-04-07T14:43:13.825Z,98252.00
2023-04-07T14:46:01.348Z,98253.00
2023-04-07T14:48:48.944Z,98248.00
2023-04-07T14:51:36.765Z,98248.00
2023-04-07T14:54:24.595Z,98251.00
2023-04-07T14:57:12.376Z,98247.00
2023-04-07T14:59:59.921Z,98244.00
2023-04-07T15:02:47.807Z,98252.00
2023-04-07T15:05:35.736Z,98249.00
2023-04-07T15:08:24.796Z,98245.00
2023-04-07T15:11:13.490Z,98244.00
2023-04-07T15:14:01.108Z,98239.00
2023-04-07T15:16:50.545Z,98238.00
2023-04-07T15:19:38.545Z,98240.00
2023-04-07T15:22:26.054Z,98246.00
2023-04-07T15:25:13.577Z,98241.00
2023-04-07T15:28:01.205Z,98244.00
2023-04-07T15:30:48.720Z,98245.00
2023-04-07T15:33:38.184Z,98240.00
2023-04-07T15:36:26.073Z,98245.00
2023-04-07T15:39:15.080Z,98238.00
2023-04-07T15:42:05.685Z,98244.00
2023-04-07T15:44:53.334Z,98247.00
2023-04-07T15:47:40.907Z,98243.00
2023-04-07T15:50:30.273Z,98247.00
2023-04-07T15:53:17.932Z,98249.00
2023-04-07T15:56:05.798Z,98243.00
2023-04-07T15:58:53.655Z,98248.00
2023-04-07T16:01:41.310Z,98243.00
2023-04-07T16:04:28.921Z,98244.00
2023-04-07T16:07:16.713Z,98246.00
2023-04-07T16:10:04.792Z,98245.00
2023-04-07T16:12:52.316Z,98248.00
2023-04-07T16:15:41.228Z,98248.00
2023-04-07T16:18:30.363Z,98246.00
2023-04-07T16:21:18.519Z,98243.00
2023-04-07T16:24:06.256Z,98247.00
2023-04-07T16:26:55.806Z,98255.00
2023-04-07T16:29:43.311Z,98253.00
2023-04-07T16:32:30.840Z,98255.00
2023-04-07T16:35:18.474Z,98258.00
2023-04-07T16:38:06.428Z,98263.00
2023-04-07T16:41:03.139Z,98267.00
2023-04-07T16:43:51.669Z,98263.00
2023-04-07T16:46:39.141Z,98265.00
2023-04-07T16:49:26.612Z,98271.00
2023-04-07T16:52:14.135Z,98282.00
2023-04-07T16:55:01.658Z,98282.00
2023-04-07T16:57:50.260Z,98283.00
2023-04-07T17:00:37.698Z,98291.00
2023-04-07T17:03:25.224Z,98297.00
2023-04-07T17:06:13.206Z,98300.00
2023-04-07T17:09:00.855Z,98305.00
2023-04-07T17:11:51.012Z,98298.00
2023-04-07T17:14:38.548Z,98310.00
2023-04-07T17:17:26.192Z,98310.00
2023-04-07T17:20:17.574Z,98317.00
2023-04-07T17:23:05.604Z,98319.00
2023-04-07T17:25:53.110Z,98319.00
2023-04-07T17:28:41.037Z,98312.00
2023-04-07T17:31:28.580Z,98315.00
2023-04-07T17:34:16.150Z,98322.00
2023-04-07T17:37:03.675Z,98325.00
2023-04-07T17:39:51.334Z,98327.00
2023-04-07T17:42:39.101Z,98327.00
2023-04-07T17:45:26.714Z,98331.00
2023-04-07T17:48:14.389Z,98333.00
2023-04-07T17:51:01.863Z,98338.00
2023-04-07T17:53:49.407Z,98343.00
2023-04-07T17:56:38.126Z,98346.00
2023-04-07T17:59:25.770Z,98353.00
2023-04-07T18:02:13.408Z,98358.00
2023-04-07T18:05:01.720Z,98369.00
2023-04-07T18:07:49.536Z,98371.00
2023-04-07T18:10:37.306Z,98370.00
2023-04-07T18:13:24.854Z,98368.00
2023-04-07T18:16:18.073Z,98379.00
2023-04-07T18:19:07.317Z,98374.00
2023-04-07T18:21:55.280Z,98382.00
2023-04-07T18:24:42.780Z,98374.00
2023-04-07T18:27:30.655Z,98397.00
2023-04-07T18:30:18.276Z,98398.00
2023-04-07T18:33:06.047Z,98405.00
2023-04-07T18:35:53.645Z,98412.00
2023-04-07T18:38:41.295Z,98418.00
2023-04-07T18:41:28.836Z,98414.00
2023-04-07T18:44:16.342Z,98414.00
2023-04-07T18:47:03.864Z,98426.00
2023-04-07T18:49:53.692Z,98417.00
2023-04-07T18:52:41.170Z,98422.00
2023-04-07T18:55:28.668Z,98424.00
2023-04-07T18:58:16.601Z,98427.00
2023-04-07T19:01:04.100Z,98426.00
2023-04-07T19:03:52.737Z,98434.00
2023-04-07T19:06:41.085Z,98432.00
2023-04-07T19:09:28.549Z,98426.00
2023-04-07T19:12:15.989Z,98430.00
2023-04-07T19:15:04.160Z,98430.00
2023-04-07T19:17:51.925Z,98443.00
2023-04-07T19:20:40.752Z,98440.00
2023-04-07T19:23:28.328Z,98444.00
2023-04-07T19:26:16.765Z,98445.00
2023-04-07T19:29:04.257Z,98440.00
2023-04-07T19:31:53.045Z,98445.00
2023-04-07T19:34:41.064Z,98448.00
2023-04-07T19:37:28.610Z,98445.00
2023-04-07T19:40:16.592Z,98449.00
2023-04-07T19:43:04.213Z,98449.00
2023-04-07T19:45:51.909Z,98442.00
2023-04-07T19:48:40.411Z,98453.00
2023-04-07T19:51:28.572Z,98446.00
2023-04-07T19:54:16.112Z,98455.00
2023-04-07T19:57:03.580Z,98449.00
2023-04-07T19:59:51.113Z,98452.00
2023-04-07T20:02:38.850Z,98455.00
2023-04-07T20:05:27.137Z,98458.00
2023-04-07T20:08:14.641Z,98462.00
2023-04-07T20:11:02.205Z,98452.00
2023-04-07T20:13:49.712Z,98455.00
2023-04-07T20:16:37.545Z,98459.00
2023-04-07T20:19:25.170Z,98464.00
2023-04-07T20:22:12.639Z,98458.00
2023-04-07T20:25:04.827Z,98464.00
2023-04-07T20:27:52.657Z,98466.00
2023-04-07T20:30:40.262Z,98476.00
2023-04-07T20:33:27.818Z,98476.00
2023-04-07T20:36:15.686Z,98473.00
2023-04-07T20:39:04.211Z,98470.00
2023-04-07T20:41:51.791Z,98474.00
2023-04-07T20:44:39.384Z,98481.00
2023-04-07T20:47:26.927Z,98485.00
2023-04-07T20:50:14.493Z,98483.00
2023-04-07T20:53:02.497Z,98483.00
2023-04-07T20:55:50.221Z,98482.00
2023-04-07T20:58:37.664Z,98484.00
2023-04-07T21:01:25.216Z,98483.00
2023-04-07T21:04:12.831Z,98481.00
2023-04-07T21:07:00.673Z,98483.00
2023-04-07T21:09:48.183Z,98482.00
2023-04-07T21:12:36.598Z,98477.00
2023-04-07T21:15:24.172Z,98490.00
2023-04-07T21:18:12.326Z,98488.00
2023-04-07T21:21:02.308Z,98483.00
2023-04-07T21:23:50.413Z,98487.00
2023-04-07T21:26:37.830Z,98487.00
2023-04-07T21:29:29.160Z,98483.00
2023-04-07T21:32:16.835Z,98482.00
2023-04-07T21:35:05.049Z,98485.00
2023-04-07T21:37:52.517Z,98487.00
2023-04-07T21:40:40.058Z,98482.00
2023-04-07T21:43:28.955Z,98490.00
2023-04-07T21:46:17.125Z,98483.00
2023-04-07T21:49:04.730Z,98490.00
2023-04-07T21:51:52.230Z,98491.00
2023-04-07T21:54:39.669Z,98494.00
2023-04-07T21:57:27.236Z,98490.00
2023-04-07T22:00:16.604Z,98488.00
2023-04-07T22:03:07.837Z,98491.00
2023-04-07T22:05:59.961Z,98482.00
2023-04-07T22:09:00.602Z,98489.00
2023-04-07T22:11:49.449Z,98489.00
2023-04-07T22:14:36.930Z,98483.00
2023-04-07T22:17:24.482Z,98487.00
2023-04-07T22:20:12.495Z,98484.00
2023-04-07T22:23:00.156Z,98489.00
2023-04-07T22:25:49.370Z,98488.00
2023-04-07T22:28:37.299Z,98484.00
2023-04-07T22:31:24.972Z,98484.00
2023-04-07T22:34:12.480Z,98485.00
2023-04-07T22:36:59.942Z,98487.00
2023-04-07T22:39:47.644Z,98493.00
2023-04-07T22:42:35.165Z,98489.00
2023-04-07T22:45:22.643Z,98479.00
2023-04-07T22:48:10.107Z,98480.00
2023-04-07T22:50:57.627Z,98476.00
2023-04-07T22:53:45.781Z,98481.00
2023-04-07T22:56:33.254Z,98478.00
2023-04-07T22:59:21.048Z,98487.00
2023-04-07T23:02:08.662Z,98481.00
2023-04-07T23:04:56.144Z,98486.00
2023-04-07T23:07:44.185Z,98493.00
2023-04-07T23:10:32.495Z,98487.00
2023-04-07T23:13:21.187Z,98492.00
2023-04-07T23:16:16.389Z,98493.00
2023-04-07T23:19:03.972Z,98491.00
2023-04-07T23:21:52.421Z,98492.00
2023-04-07T23:24:39.902Z,98493.00
2023-04-07T23:27:27.306Z,98487.00
2023-04-07T23:30:14.780Z,98487.00
2023-04-07T23:33:02.282Z,98495.00
2023-04-07T23:35:50.785Z,98489.00
2023-04-07T23:38:39.673Z,98488.00
2023-04-07T23:41:27.147Z,98497.00
2023-04-07T23:44:14.634Z,98502.00
2023-04-07T23:47:02.314Z,98503.00
2023-04-07T23:49:49.887Z,98507.00
2023-04-07T23:52:37.482Z,98506.00
2023-04-07T23:55:25.073Z,98496.00
2023-04-07T23:58:12.481Z,98505.00
